sensor_id;sensor_type;location;lat;lon;timestamp;P1;durP1;ratioP1;P2;durP2;ratioP2
65667;SDS011;52369;52.542;13.232;2024-03-25T00:00:49;7.40;;;3.30;;
65667;SDS011;52369;52.542;13.232;2024-03-25T00:03:15;6.85;;;2.60;;
65667;SDS011;52369;52.542;13.232;2024-03-25T00:05:41;7.25;;;3.83;;
65667;SDS011;52369;52.542;13.232;2024-03-25T00:08:07;6.65;;;3.10;;
65667;SDS011;52369;52.542;13.232;2024-03-25T00:10:33;9.68;;;4.00;;
65667;SDS011;52369;52.542;13.232;2024-03-25T00:12:59;7.30;;;3.42;;
65667;SDS011;52369;52.542;13.232;2024-03-25T00:15:25;5.18;;;3.17;;
65667;SDS011;52369;52.542;13.232;2024-03-25T00:17:51;5.57;;;2.97;;
65667;SDS011;52369;52.542;13.232;2024-03-25T00:20:17;5.03;;;3.33;;
65667;SDS011;52369;52.542;13.232;2024-03-25T00:22:43;10.10;;;4.00;;
65667;SDS011;52369;52.542;13.232;2024-03-25T00:25:09;5.55;;;2.88;;
65667;SDS011;52369;52.542;13.232;2024-03-25T00:27:36;6.68;;;3.30;;
65667;SDS011;52369;52.542;13.232;2024-03-25T00:30:02;5.57;;;3.13;;
65667;SDS011;52369;52.542;13.232;2024-03-25T00:32:30;4.63;;;2.90;;
65667;SDS011;52369;52.542;13.232;2024-03-25T00:34:56;6.38;;;3.05;;
65667;SDS011;52369;52.542;13.232;2024-03-25T00:37:22;4.90;;;2.85;;
65667;SDS011;52369;52.542;13.232;2024-03-25T00:39:49;6.97;;;3.40;;
65667;SDS011;52369;52.542;13.232;2024-03-25T00:42:15;4.95;;;3.05;;
65667;SDS011;52369;52.542;13.232;2024-03-25T00:44:41;6.90;;;3.58;;
65667;SDS011;52369;52.542;13.232;2024-03-25T00:47:07;5.47;;;3.22;;
65667;SDS011;52369;52.542;13.232;2024-03-25T00:49:33;8.20;;;3.25;;
65667;SDS011;52369;52.542;13.232;2024-03-25T00:51:59;7.38;;;3.55;;
65667;SDS011;52369;52.542;13.232;2024-03-25T00:54:25;6.38;;;3.33;;
65667;SDS011;52369;52.542;13.232;2024-03-25T00:56:52;6.53;;;3.25;;
65667;SDS011;52369;52.542;13.232;2024-03-25T00:59:18;7.97;;;3.78;;
65667;SDS011;52369;52.542;13.232;2024-03-25T01:01:44;8.52;;;3.55;;
65667;SDS011;52369;52.542;13.232;2024-03-25T01:04:10;8.32;;;4.05;;
65667;SDS011;52369;52.542;13.232;2024-03-25T01:06:36;7.10;;;4.00;;
65667;SDS011;52369;52.542;13.232;2024-03-25T01:09:02;7.15;;;3.47;;
65667;SDS011;52369;52.542;13.232;2024-03-25T01:11:29;6.28;;;3.42;;
65667;SDS011;52369;52.542;13.232;2024-03-25T01:13:55;6.95;;;3.78;;
65667;SDS011;52369;52.542;13.232;2024-03-25T01:16:22;7.75;;;3.78;;
65667;SDS011;52369;52.542;13.232;2024-03-25T01:18:48;7.13;;;3.65;;
65667;SDS011;52369;52.542;13.232;2024-03-25T01:21:14;7.60;;;3.53;;
65667;SDS011;52369;52.542;13.232;2024-03-25T01:23:40;6.75;;;3.72;;
65667;SDS011;52369;52.542;13.232;2024-03-25T01:26:06;8.48;;;3.95;;
65667;SDS011;52369;52.542;13.232;2024-03-25T01:28:32;7.38;;;3.72;;
65667;SDS011;52369;52.542;13.232;2024-03-25T01:30:58;6.13;;;3.47;;
65667;SDS011;52369;52.542;13.232;2024-03-25T01:33:24;8.77;;;3.55;;
65667;SDS011;52369;52.542;13.232;2024-03-25T01:35:51;6.53;;;2.70;;
65667;SDS011;52369;52.542;13.232;2024-03-25T01:38:17;5.07;;;2.30;;
65667;SDS011;52369;52.542;13.232;2024-03-25T01:40:43;3.53;;;2.45;;
65667;SDS011;52369;52.542;13.232;2024-03-25T01:43:10;3.25;;;1.55;;
65667;SDS011;52369;52.542;13.232;2024-03-25T01:45:36;2.10;;;1.52;;
65667;SDS011;52369;52.542;13.232;2024-03-25T01:48:03;2.83;;;1.30;;
65667;SDS011;52369;52.542;13.232;2024-03-25T01:50:31;2.03;;;1.40;;
65667;SDS011;52369;52.542;13.232;2024-03-25T01:52:58;3.25;;;1.63;;
65667;SDS011;52369;52.542;13.232;2024-03-25T01:55:25;4.75;;;1.92;;
65667;SDS011;52369;52.542;13.232;2024-03-25T01:57:52;4.20;;;1.85;;
65667;SDS011;52369;52.542;13.232;2024-03-25T02:00:18;3.80;;;1.50;;
65667;SDS011;52369;52.542;13.232;2024-03-25T02:02:44;2.97;;;1.67;;
65667;SDS011;52369;52.542;13.232;2024-03-25T02:05:12;4.20;;;2.10;;
65667;SDS011;52369;52.542;13.232;2024-03-25T02:07:38;4.90;;;2.15;;
65667;SDS011;52369;52.542;13.232;2024-03-25T02:10:06;4.60;;;1.80;;
65667;SDS011;52369;52.542;13.232;2024-03-25T02:12:34;5.15;;;2.33;;
65667;SDS011;52369;52.542;13.232;2024-03-25T02:15:01;4.72;;;2.47;;
65667;SDS011;52369;52.542;13.232;2024-03-25T02:17:27;4.82;;;2.38;;
65667;SDS011;52369;52.542;13.232;2024-03-25T02:19:53;6.00;;;2.58;;
65667;SDS011;52369;52.542;13.232;2024-03-25T02:22:19;6.28;;;2.85;;
65667;SDS011;52369;52.542;13.232;2024-03-25T02:24:45;6.63;;;3.30;;
65667;SDS011;52369;52.542;13.232;2024-03-25T02:27:12;7.55;;;3.25;;
65667;SDS011;52369;52.542;13.232;2024-03-25T02:29:39;7.95;;;3.10;;
65667;SDS011;52369;52.542;13.232;2024-03-25T02:32:06;6.80;;;2.85;;
65667;SDS011;52369;52.542;13.232;2024-03-25T02:34:36;7.32;;;2.85;;
65667;SDS011;52369;52.542;13.232;2024-03-25T02:37:02;6.75;;;2.90;;
65667;SDS011;52369;52.542;13.232;2024-03-25T02:39:28;6.10;;;3.33;;
65667;SDS011;52369;52.542;13.232;2024-03-25T02:41:54;5.72;;;2.78;;
65667;SDS011;52369;52.542;13.232;2024-03-25T02:44:21;7.88;;;3.33;;
65667;SDS011;52369;52.542;13.232;2024-03-25T02:46:47;7.35;;;3.13;;
65667;SDS011;52369;52.542;13.232;2024-03-25T02:49:13;6.15;;;2.67;;
65667;SDS011;52369;52.542;13.232;2024-03-25T02:51:40;7.15;;;2.83;;
65667;SDS011;52369;52.542;13.232;2024-03-25T02:54:06;6.88;;;3.15;;
65667;SDS011;52369;52.542;13.232;2024-03-25T02:56:33;7.35;;;3.55;;
65667;SDS011;52369;52.542;13.232;2024-03-25T02:59:00;9.02;;;3.30;;
65667;SDS011;52369;52.542;13.232;2024-03-25T03:01:26;6.20;;;2.95;;
65667;SDS011;52369;52.542;13.232;2024-03-25T03:03:52;7.32;;;3.10;;
65667;SDS011;52369;52.542;13.232;2024-03-25T03:06:18;6.20;;;2.60;;
65667;SDS011;52369;52.542;13.232;2024-03-25T03:08:44;5.95;;;2.72;;
65667;SDS011;52369;52.542;13.232;2024-03-25T03:11:10;6.43;;;2.35;;
65667;SDS011;52369;52.542;13.232;2024-03-25T03:13:36;6.97;;;2.40;;
65667;SDS011;52369;52.542;13.232;2024-03-25T03:16:02;6.75;;;2.58;;
65667;SDS011;52369;52.542;13.232;2024-03-25T03:18:28;17.10;;;5.72;;
65667;SDS011;52369;52.542;13.232;2024-03-25T03:20:54;7.88;;;2.60;;
65667;SDS011;52369;52.542;13.232;2024-03-25T03:23:23;4.90;;;2.30;;
65667;SDS011;52369;52.542;13.232;2024-03-25T03:25:49;7.93;;;2.83;;
65667;SDS011;52369;52.542;13.232;2024-03-25T03:28:17;4.53;;;1.95;;
65667;SDS011;52369;52.542;13.232;2024-03-25T03:30:43;5.05;;;2.28;;
65667;SDS011;52369;52.542;13.232;2024-03-25T03:33:09;5.35;;;2.42;;
65667;SDS011;52369;52.542;13.232;2024-03-25T03:35:35;6.60;;;2.70;;
65667;SDS011;52369;52.542;13.232;2024-03-25T03:38:01;3.95;;;2.20;;
65667;SDS011;52369;52.542;13.232;2024-03-25T03:40:28;8.85;;;2.60;;
65667;SDS011;52369;52.542;13.232;2024-03-25T03:42:54;4.78;;;2.80;;
65667;SDS011;52369;52.542;13.232;2024-03-25T03:45:21;2.72;;;2.10;;
65667;SDS011;52369;52.542;13.232;2024-03-25T03:47:47;3.67;;;1.98;;
65667;SDS011;52369;52.542;13.232;2024-03-25T03:50:13;8.15;;;2.70;;
65667;SDS011;52369;52.542;13.232;2024-03-25T03:52:39;6.20;;;2.45;;
65667;SDS011;52369;52.542;13.232;2024-03-25T03:55:05;5.47;;;2.38;;
65667;SDS011;52369;52.542;13.232;2024-03-25T03:57:31;4.90;;;2.45;;
65667;SDS011;52369;52.542;13.232;2024-03-25T03:59:57;8.10;;;2.90;;
65667;SDS011;52369;52.542;13.232;2024-03-25T04:02:24;4.35;;;2.33;;
65667;SDS011;52369;52.542;13.232;2024-03-25T04:04:50;6.38;;;2.38;;
65667;SDS011;52369;52.542;13.232;2024-03-25T04:07:16;5.47;;;2.40;;
65667;SDS011;52369;52.542;13.232;2024-03-25T04:09:43;4.32;;;2.33;;
65667;SDS011;52369;52.542;13.232;2024-03-25T04:12:09;4.55;;;2.17;;
65667;SDS011;52369;52.542;13.232;2024-03-25T04:14:35;5.18;;;2.63;;
65667;SDS011;52369;52.542;13.232;2024-03-25T04:17:01;7.90;;;3.22;;
65667;SDS011;52369;52.542;13.232;2024-03-25T04:19:28;6.70;;;2.35;;
65667;SDS011;52369;52.542;13.232;2024-03-25T04:21:54;6.60;;;2.45;;
65667;SDS011;52369;52.542;13.232;2024-03-25T04:24:20;7.47;;;2.58;;
65667;SDS011;52369;52.542;13.232;2024-03-25T04:26:46;7.43;;;2.45;;
65667;SDS011;52369;52.542;13.232;2024-03-25T04:29:13;4.10;;;2.22;;
65667;SDS011;52369;52.542;13.232;2024-03-25T04:31:39;7.97;;;3.10;;
65667;SDS011;52369;52.542;13.232;2024-03-25T04:34:05;5.55;;;2.63;;
65667;SDS011;52369;52.542;13.232;2024-03-25T04:36:31;9.18;;;2.75;;
65667;SDS011;52369;52.542;13.232;2024-03-25T04:38:57;5.95;;;2.60;;
65667;SDS011;52369;52.542;13.232;2024-03-25T04:41:23;6.95;;;2.78;;
65667;SDS011;52369;52.542;13.232;2024-03-25T04:43:49;8.73;;;3.05;;
65667;SDS011;52369;52.542;13.232;2024-03-25T04:46:15;7.68;;;2.55;;
65667;SDS011;52369;52.542;13.232;2024-03-25T04:48:41;5.25;;;2.65;;
65667;SDS011;52369;52.542;13.232;2024-03-25T04:51:07;7.47;;;2.90;;
65667;SDS011;52369;52.542;13.232;2024-03-25T04:53:34;8.73;;;2.90;;
65667;SDS011;52369;52.542;13.232;2024-03-25T04:56:00;9.35;;;2.88;;
65667;SDS011;52369;52.542;13.232;2024-03-25T04:58:26;8.35;;;2.67;;
65667;SDS011;52369;52.542;13.232;2024-03-25T05:00:52;8.57;;;3.15;;
65667;SDS011;52369;52.542;13.232;2024-03-25T05:03:18;5.00;;;2.75;;
65667;SDS011;52369;52.542;13.232;2024-03-25T05:05:44;6.00;;;2.83;;
65667;SDS011;52369;52.542;13.232;2024-03-25T05:08:10;7.68;;;2.85;;
65667;SDS011;52369;52.542;13.232;2024-03-25T05:10:36;5.97;;;2.72;;
65667;SDS011;52369;52.542;13.232;2024-03-25T05:13:02;8.55;;;3.15;;
65667;SDS011;52369;52.542;13.232;2024-03-25T05:15:29;7.95;;;3.08;;
65667;SDS011;52369;52.542;13.232;2024-03-25T05:17:54;9.75;;;3.28;;
65667;SDS011;52369;52.542;13.232;2024-03-25T05:20:21;5.82;;;2.83;;
65667;SDS011;52369;52.542;13.232;2024-03-25T05:22:47;7.22;;;3.10;;
65667;SDS011;52369;52.542;13.232;2024-03-25T05:25:13;6.45;;;2.95;;
65667;SDS011;52369;52.542;13.232;2024-03-25T05:27:39;7.55;;;3.10;;
65667;SDS011;52369;52.542;13.232;2024-03-25T05:30:05;6.72;;;2.95;;
65667;SDS011;52369;52.542;13.232;2024-03-25T05:32:31;9.63;;;3.30;;
65667;SDS011;52369;52.542;13.232;2024-03-25T05:34:57;11.93;;;3.70;;
65667;SDS011;52369;52.542;13.232;2024-03-25T05:37:23;9.45;;;3.53;;
65667;SDS011;52369;52.542;13.232;2024-03-25T05:39:49;10.07;;;3.38;;
65667;SDS011;52369;52.542;13.232;2024-03-25T05:42:15;10.18;;;3.60;;
65667;SDS011;52369;52.542;13.232;2024-03-25T05:44:41;11.05;;;3.75;;
65667;SDS011;52369;52.542;13.232;2024-03-25T05:47:07;6.80;;;3.50;;
65667;SDS011;52369;52.542;13.232;2024-03-25T05:49:33;7.93;;;3.17;;
65667;SDS011;52369;52.542;13.232;2024-03-25T05:51:59;8.73;;;3.53;;
65667;SDS011;52369;52.542;13.232;2024-03-25T05:54:25;5.00;;;2.67;;
65667;SDS011;52369;52.542;13.232;2024-03-25T05:56:51;9.27;;;3.55;;
65667;SDS011;52369;52.542;13.232;2024-03-25T05:59:17;9.68;;;3.60;;
65667;SDS011;52369;52.542;13.232;2024-03-25T06:01:43;7.93;;;2.90;;
65667;SDS011;52369;52.542;13.232;2024-03-25T06:04:09;11.10;;;3.50;;
65667;SDS011;52369;52.542;13.232;2024-03-25T06:06:35;8.90;;;3.28;;
65667;SDS011;52369;52.542;13.232;2024-03-25T06:09:01;11.23;;;3.70;;
65667;SDS011;52369;52.542;13.232;2024-03-25T06:11:27;8.80;;;2.70;;
65667;SDS011;52369;52.542;13.232;2024-03-25T06:13:53;8.23;;;3.00;;
65667;SDS011;52369;52.542;13.232;2024-03-25T06:16:19;11.23;;;3.53;;
65667;SDS011;52369;52.542;13.232;2024-03-25T06:18:45;8.85;;;3.22;;
65667;SDS011;52369;52.542;13.232;2024-03-25T06:21:11;9.93;;;3.15;;
65667;SDS011;52369;52.542;13.232;2024-03-25T06:23:38;7.03;;;2.92;;
65667;SDS011;52369;52.542;13.232;2024-03-25T06:26:05;8.23;;;3.25;;
65667;SDS011;52369;52.542;13.232;2024-03-25T06:28:31;10.05;;;3.08;;
65667;SDS011;52369;52.542;13.232;2024-03-25T06:30:57;6.43;;;2.95;;
65667;SDS011;52369;52.542;13.232;2024-03-25T06:33:42;11.82;;;3.50;;
65667;SDS011;52369;52.542;13.232;2024-03-25T06:36:26;9.10;;;3.17;;
65667;SDS011;52369;52.542;13.232;2024-03-25T06:38:52;7.97;;;3.13;;
65667;SDS011;52369;52.542;13.232;2024-03-25T06:41:18;6.22;;;2.75;;
65667;SDS011;52369;52.542;13.232;2024-03-25T06:43:45;6.75;;;3.03;;
65667;SDS011;52369;52.542;13.232;2024-03-25T06:46:11;10.85;;;3.30;;
65667;SDS011;52369;52.542;13.232;2024-03-25T06:48:37;10.65;;;3.40;;
65667;SDS011;52369;52.542;13.232;2024-03-25T06:51:03;8.10;;;3.20;;
65667;SDS011;52369;52.542;13.232;2024-03-25T06:53:29;7.35;;;3.30;;
65667;SDS011;52369;52.542;13.232;2024-03-25T06:55:56;8.40;;;3.25;;
65667;SDS011;52369;52.542;13.232;2024-03-25T06:58:23;8.60;;;3.50;;
65667;SDS011;52369;52.542;13.232;2024-03-25T07:00:49;8.10;;;3.53;;
65667;SDS011;52369;52.542;13.232;2024-03-25T07:03:16;8.10;;;2.83;;
65667;SDS011;52369;52.542;13.232;2024-03-25T07:05:45;7.78;;;2.83;;
65667;SDS011;52369;52.542;13.232;2024-03-25T07:08:12;5.95;;;3.00;;
65667;SDS011;52369;52.542;13.232;2024-03-25T07:10:38;8.02;;;2.80;;
65667;SDS011;52369;52.542;13.232;2024-03-25T07:13:04;8.57;;;2.67;;
65667;SDS011;52369;52.542;13.232;2024-03-25T07:15:30;7.40;;;2.63;;
65667;SDS011;52369;52.542;13.232;2024-03-25T07:17:57;5.93;;;3.55;;
65667;SDS011;52369;52.542;13.232;2024-03-25T07:20:23;9.07;;;3.38;;
65667;SDS011;52369;52.542;13.232;2024-03-25T07:22:49;8.00;;;2.85;;
65667;SDS011;52369;52.542;13.232;2024-03-25T07:25:15;5.00;;;2.53;;
65667;SDS011;52369;52.542;13.232;2024-03-25T07:27:42;5.97;;;2.85;;
65667;SDS011;52369;52.542;13.232;2024-03-25T07:30:08;4.65;;;2.95;;
65667;SDS011;52369;52.542;13.232;2024-03-25T07:32:35;9.68;;;3.20;;
65667;SDS011;52369;52.542;13.232;2024-03-25T07:35:01;8.75;;;3.50;;
65667;SDS011;52369;52.542;13.232;2024-03-25T07:37:29;9.70;;;2.95;;
65667;SDS011;52369;52.542;13.232;2024-03-25T07:39:55;6.55;;;2.95;;
65667;SDS011;52369;52.542;13.232;2024-03-25T07:42:21;8.73;;;3.67;;
65667;SDS011;52369;52.542;13.232;2024-03-25T07:44:47;8.38;;;3.13;;
65667;SDS011;52369;52.542;13.232;2024-03-25T07:47:13;7.03;;;3.15;;
65667;SDS011;52369;52.542;13.232;2024-03-25T07:49:39;6.60;;;3.55;;
65667;SDS011;52369;52.542;13.232;2024-03-25T07:52:06;8.15;;;3.53;;
65667;SDS011;52369;52.542;13.232;2024-03-25T07:54:32;6.30;;;3.05;;
65667;SDS011;52369;52.542;13.232;2024-03-25T07:56:58;7.72;;;3.83;;
65667;SDS011;52369;52.542;13.232;2024-03-25T07:59:24;6.72;;;3.38;;
65667;SDS011;52369;52.542;13.232;2024-03-25T08:01:50;5.88;;;2.80;;
65667;SDS011;52369;52.542;13.232;2024-03-25T08:04:16;7.78;;;3.47;;
65667;SDS011;52369;52.542;13.232;2024-03-25T08:06:42;8.73;;;3.20;;
65667;SDS011;52369;52.542;13.232;2024-03-25T08:09:08;6.95;;;3.20;;
65667;SDS011;52369;52.542;13.232;2024-03-25T08:11:34;10.55;;;3.90;;
65667;SDS011;52369;52.542;13.232;2024-03-25T08:14:01;9.35;;;3.75;;
65667;SDS011;52369;52.542;13.232;2024-03-25T08:16:27;9.68;;;3.25;;
65667;SDS011;52369;52.542;13.232;2024-03-25T08:18:53;6.93;;;3.50;;
65667;SDS011;52369;52.542;13.232;2024-03-25T08:21:19;6.65;;;3.45;;
65667;SDS011;52369;52.542;13.232;2024-03-25T08:23:45;8.95;;;4.10;;
65667;SDS011;52369;52.542;13.232;2024-03-25T08:26:11;9.75;;;3.70;;
65667;SDS011;52369;52.542;13.232;2024-03-25T08:28:37;8.20;;;3.20;;
65667;SDS011;52369;52.542;13.232;2024-03-25T08:31:03;7.72;;;3.00;;
65667;SDS011;52369;52.542;13.232;2024-03-25T08:33:29;6.47;;;3.30;;
65667;SDS011;52369;52.542;13.232;2024-03-25T08:35:55;5.78;;;3.13;;
65667;SDS011;52369;52.542;13.232;2024-03-25T08:38:21;8.27;;;3.58;;
65667;SDS011;52369;52.542;13.232;2024-03-25T08:40:47;8.07;;;3.17;;
65667;SDS011;52369;52.542;13.232;2024-03-25T08:43:13;8.95;;;3.65;;
65667;SDS011;52369;52.542;13.232;2024-03-25T08:45:39;6.32;;;3.15;;
65667;SDS011;52369;52.542;13.232;2024-03-25T08:48:06;8.02;;;4.03;;
65667;SDS011;52369;52.542;13.232;2024-03-25T08:50:32;5.78;;;3.20;;
65667;SDS011;52369;52.542;13.232;2024-03-25T08:52:58;5.63;;;3.15;;
65667;SDS011;52369;52.542;13.232;2024-03-25T08:55:24;8.68;;;3.78;;
65667;SDS011;52369;52.542;13.232;2024-03-25T08:57:50;6.68;;;3.17;;
65667;SDS011;52369;52.542;13.232;2024-03-25T09:00:17;7.60;;;3.03;;
65667;SDS011;52369;52.542;13.232;2024-03-25T09:02:43;8.02;;;3.30;;
65667;SDS011;52369;52.542;13.232;2024-03-25T09:05:09;7.60;;;3.55;;
65667;SDS011;52369;52.542;13.232;2024-03-25T09:07:35;4.75;;;2.40;;
65667;SDS011;52369;52.542;13.232;2024-03-25T09:10:02;7.00;;;3.10;;
65667;SDS011;52369;52.542;13.232;2024-03-25T09:12:46;6.38;;;3.08;;
65667;SDS011;52369;52.542;13.232;2024-03-25T09:15:12;10.00;;;3.85;;
65667;SDS011;52369;52.542;13.232;2024-03-25T09:17:39;5.93;;;2.88;;
65667;SDS011;52369;52.542;13.232;2024-03-25T09:20:05;9.23;;;3.25;;
65667;SDS011;52369;52.542;13.232;2024-03-25T09:22:45;8.98;;;2.90;;
65667;SDS011;52369;52.542;13.232;2024-03-25T09:25:12;7.97;;;2.67;;
65667;SDS011;52369;52.542;13.232;2024-03-25T09:27:38;8.35;;;3.15;;
65667;SDS011;52369;52.542;13.232;2024-03-25T09:30:05;5.90;;;2.70;;
65667;SDS011;52369;52.542;13.232;2024-03-25T09:32:31;8.25;;;3.10;;
65667;SDS011;52369;52.542;13.232;2024-03-25T09:34:57;7.63;;;2.80;;
65667;SDS011;52369;52.542;13.232;2024-03-25T09:37:23;8.63;;;2.97;;
65667;SDS011;52369;52.542;13.232;2024-03-25T09:39:49;5.93;;;3.22;;
65667;SDS011;52369;52.542;13.232;2024-03-25T09:42:18;6.03;;;2.78;;
65667;SDS011;52369;52.542;13.232;2024-03-25T09:44:45;6.28;;;2.42;;
65667;SDS011;52369;52.542;13.232;2024-03-25T09:47:11;6.65;;;2.90;;
65667;SDS011;52369;52.542;13.232;2024-03-25T09:49:38;6.22;;;2.72;;
65667;SDS011;52369;52.542;13.232;2024-03-25T09:52:06;5.32;;;2.80;;
65667;SDS011;52369;52.542;13.232;2024-03-25T09:54:33;4.38;;;2.70;;
65667;SDS011;52369;52.542;13.232;2024-03-25T09:57:00;6.18;;;2.60;;
65667;SDS011;52369;52.542;13.232;2024-03-25T09:59:26;4.88;;;2.45;;
65667;SDS011;52369;52.542;13.232;2024-03-25T10:01:53;4.03;;;2.28;;
65667;SDS011;52369;52.542;13.232;2024-03-25T10:04:19;6.20;;;2.22;;
65667;SDS011;52369;52.542;13.232;2024-03-25T10:06:45;4.72;;;2.78;;
65667;SDS011;52369;52.542;13.232;2024-03-25T10:09:13;7.75;;;2.70;;
65667;SDS011;52369;52.542;13.232;2024-03-25T10:11:39;5.00;;;2.70;;
65667;SDS011;52369;52.542;13.232;2024-03-25T10:14:05;5.00;;;2.70;;
65667;SDS011;52369;52.542;13.232;2024-03-25T10:16:31;4.78;;;2.33;;
65667;SDS011;52369;52.542;13.232;2024-03-25T10:18:57;2.78;;;2.30;;
65667;SDS011;52369;52.542;13.232;2024-03-25T10:21:23;3.75;;;2.25;;
65667;SDS011;52369;52.542;13.232;2024-03-25T10:23:49;3.30;;;1.90;;
65667;SDS011;52369;52.542;13.232;2024-03-25T10:26:27;6.60;;;2.80;;
65667;SDS011;52369;52.542;13.232;2024-03-25T10:29:03;5.32;;;2.13;;
65667;SDS011;52369;52.542;13.232;2024-03-25T10:31:32;5.18;;;1.98;;
65667;SDS011;52369;52.542;13.232;2024-03-25T10:33:58;6.75;;;2.10;;
65667;SDS011;52369;52.542;13.232;2024-03-25T10:36:25;6.05;;;2.40;;
65667;SDS011;52369;52.542;13.232;2024-03-25T10:38:54;6.72;;;2.20;;
65667;SDS011;52369;52.542;13.232;2024-03-25T10:41:21;5.05;;;2.25;;
65667;SDS011;52369;52.542;13.232;2024-03-25T10:43:47;3.90;;;2.28;;
65667;SDS011;52369;52.542;13.232;2024-03-25T10:46:17;6.53;;;2.55;;
65667;SDS011;52369;52.542;13.232;2024-03-25T10:48:47;5.18;;;2.53;;
65667;SDS011;52369;52.542;13.232;2024-03-25T10:51:13;7.18;;;2.88;;
65667;SDS011;52369;52.542;13.232;2024-03-25T10:53:40;6.05;;;2.17;;
65667;SDS011;52369;52.542;13.232;2024-03-25T10:56:06;4.50;;;2.25;;
65667;SDS011;52369;52.542;13.232;2024-03-25T10:58:33;3.25;;;1.77;;
65667;SDS011;52369;52.542;13.232;2024-03-25T11:00:59;6.78;;;2.53;;
65667;SDS011;52369;52.542;13.232;2024-03-25T11:03:26;4.13;;;2.50;;
65667;SDS011;52369;52.542;13.232;2024-03-25T11:05:52;4.43;;;2.28;;
65667;SDS011;52369;52.542;13.232;2024-03-25T11:08:18;4.22;;;2.00;;
65667;SDS011;52369;52.542;13.232;2024-03-25T11:10:45;7.75;;;2.40;;
65667;SDS011;52369;52.542;13.232;2024-03-25T11:13:14;3.95;;;1.88;;
65667;SDS011;52369;52.542;13.232;2024-03-25T11:15:41;4.60;;;2.42;;
65667;SDS011;52369;52.542;13.232;2024-03-25T11:18:12;4.55;;;1.80;;
65667;SDS011;52369;52.542;13.232;2024-03-25T11:20:38;2.72;;;1.65;;
65667;SDS011;52369;52.542;13.232;2024-03-25T11:23:13;3.35;;;2.05;;
65667;SDS011;52369;52.542;13.232;2024-03-25T11:25:40;4.65;;;2.20;;
65667;SDS011;52369;52.542;13.232;2024-03-25T11:28:07;6.50;;;2.25;;
65667;SDS011;52369;52.542;13.232;2024-03-25T11:30:34;3.47;;;1.83;;
65667;SDS011;52369;52.542;13.232;2024-03-25T11:33:02;6.13;;;2.47;;
65667;SDS011;52369;52.542;13.232;2024-03-25T11:35:36;2.72;;;1.58;;
65667;SDS011;52369;52.542;13.232;2024-03-25T11:38:02;3.80;;;2.13;;
65667;SDS011;52369;52.542;13.232;2024-03-25T11:40:29;4.38;;;1.67;;
65667;SDS011;52369;52.542;13.232;2024-03-25T11:42:55;4.50;;;1.70;;
65667;SDS011;52369;52.542;13.232;2024-03-25T11:45:21;4.63;;;2.30;;
65667;SDS011;52369;52.542;13.232;2024-03-25T11:47:48;5.85;;;2.45;;
65667;SDS011;52369;52.542;13.232;2024-03-25T11:50:15;9.10;;;3.97;;
65667;SDS011;52369;52.542;13.232;2024-03-25T11:52:42;2.70;;;1.63;;
65667;SDS011;52369;52.542;13.232;2024-03-25T11:55:08;3.67;;;1.90;;
65667;SDS011;52369;52.542;13.232;2024-03-25T11:57:35;7.95;;;3.50;;
65667;SDS011;52369;52.542;13.232;2024-03-25T12:00:02;4.38;;;1.70;;
65667;SDS011;52369;52.542;13.232;2024-03-25T12:02:32;4.35;;;2.40;;
65667;SDS011;52369;52.542;13.232;2024-03-25T12:04:58;4.40;;;2.17;;
65667;SDS011;52369;52.542;13.232;2024-03-25T12:07:24;5.03;;;2.25;;
65667;SDS011;52369;52.542;13.232;2024-03-25T12:09:50;6.50;;;3.00;;
65667;SDS011;52369;52.542;13.232;2024-03-25T12:12:35;2.97;;;1.58;;
65667;SDS011;52369;52.542;13.232;2024-03-25T12:15:04;5.82;;;3.00;;
65667;SDS011;52369;52.542;13.232;2024-03-25T12:17:31;4.75;;;1.63;;
65667;SDS011;52369;52.542;13.232;2024-03-25T12:20:08;4.57;;;2.70;;
65667;SDS011;52369;52.542;13.232;2024-03-25T12:22:34;4.88;;;2.10;;
65667;SDS011;52369;52.542;13.232;2024-03-25T12:25:03;3.97;;;2.30;;
65667;SDS011;52369;52.542;13.232;2024-03-25T12:27:33;4.57;;;2.05;;
65667;SDS011;52369;52.542;13.232;2024-03-25T12:30:01;8.25;;;2.90;;
65667;SDS011;52369;52.542;13.232;2024-03-25T12:35:03;2.28;;;1.40;;
65667;SDS011;52369;52.542;13.232;2024-03-25T12:37:30;7.70;;;2.10;;
65667;SDS011;52369;52.542;13.232;2024-03-25T12:39:56;8.13;;;4.05;;
65667;SDS011;52369;52.542;13.232;2024-03-25T12:42:24;3.38;;;1.77;;
65667;SDS011;52369;52.542;13.232;2024-03-25T12:44:52;6.00;;;2.15;;
65667;SDS011;52369;52.542;13.232;2024-03-25T12:47:18;3.97;;;1.92;;
65667;SDS011;52369;52.542;13.232;2024-03-25T12:49:44;5.47;;;2.50;;
65667;SDS011;52369;52.542;13.232;2024-03-25T12:52:11;4.07;;;1.80;;
65667;SDS011;52369;52.542;13.232;2024-03-25T12:54:37;3.53;;;2.10;;
65667;SDS011;52369;52.542;13.232;2024-03-25T12:57:04;4.35;;;2.45;;
65667;SDS011;52369;52.542;13.232;2024-03-25T12:59:30;9.10;;;2.97;;
65667;SDS011;52369;52.542;13.232;2024-03-25T13:01:56;2.03;;;1.52;;
65667;SDS011;52369;52.542;13.232;2024-03-25T13:04:22;6.30;;;2.72;;
65667;SDS011;52369;52.542;13.232;2024-03-25T13:06:48;5.85;;;2.40;;
65667;SDS011;52369;52.542;13.232;2024-03-25T13:09:15;3.65;;;1.85;;
65667;SDS011;52369;52.542;13.232;2024-03-25T13:11:41;3.80;;;1.50;;
65667;SDS011;52369;52.542;13.232;2024-03-25T13:14:07;4.03;;;1.63;;
65667;SDS011;52369;52.542;13.232;2024-03-25T13:16:33;4.63;;;2.13;;
65667;SDS011;52369;52.542;13.232;2024-03-25T13:18:59;2.95;;;1.55;;
65667;SDS011;52369;52.542;13.232;2024-03-25T13:21:25;5.10;;;1.90;;
65667;SDS011;52369;52.542;13.232;2024-03-25T13:23:51;6.05;;;1.90;;
65667;SDS011;52369;52.542;13.232;2024-03-25T13:26:18;3.45;;;1.63;;
65667;SDS011;52369;52.542;13.232;2024-03-25T13:28:44;3.55;;;2.38;;
65667;SDS011;52369;52.542;13.232;2024-03-25T13:31:10;3.22;;;1.95;;
65667;SDS011;52369;52.542;13.232;2024-03-25T13:33:37;2.78;;;1.48;;
65667;SDS011;52369;52.542;13.232;2024-03-25T13:36:04;2.67;;;1.33;;
65667;SDS011;52369;52.542;13.232;2024-03-25T13:38:30;3.10;;;1.50;;
65667;SDS011;52369;52.542;13.232;2024-03-25T13:40:56;6.45;;;2.10;;
65667;SDS011;52369;52.542;13.232;2024-03-25T13:43:22;2.75;;;1.55;;
65667;SDS011;52369;52.542;13.232;2024-03-25T13:45:48;4.70;;;2.42;;
65667;SDS011;52369;52.542;13.232;2024-03-25T13:48:15;5.80;;;2.15;;
65667;SDS011;52369;52.542;13.232;2024-03-25T13:50:41;4.00;;;2.10;;
65667;SDS011;52369;52.542;13.232;2024-03-25T13:53:08;4.75;;;2.03;;
65667;SDS011;52369;52.542;13.232;2024-03-25T13:55:35;3.40;;;1.42;;
65667;SDS011;52369;52.542;13.232;2024-03-25T13:58:01;5.93;;;2.20;;
65667;SDS011;52369;52.542;13.232;2024-03-25T14:00:27;3.25;;;1.83;;
65667;SDS011;52369;52.542;13.232;2024-03-25T14:02:53;7.25;;;2.53;;
65667;SDS011;52369;52.542;13.232;2024-03-25T14:05:22;3.58;;;1.83;;
65667;SDS011;52369;52.542;13.232;2024-03-25T14:07:51;2.65;;;1.58;;
65667;SDS011;52369;52.542;13.232;2024-03-25T14:10:17;1.35;;;1.08;;
65667;SDS011;52369;52.542;13.232;2024-03-25T14:12:43;6.65;;;2.20;;
65667;SDS011;52369;52.542;13.232;2024-03-25T14:15:09;3.88;;;1.73;;
65667;SDS011;52369;52.542;13.232;2024-03-25T14:17:35;3.80;;;1.60;;
65667;SDS011;52369;52.542;13.232;2024-03-25T14:20:01;2.88;;;1.52;;
65667;SDS011;52369;52.542;13.232;2024-03-25T14:22:31;2.45;;;1.42;;
65667;SDS011;52369;52.542;13.232;2024-03-25T14:24:57;2.40;;;1.30;;
65667;SDS011;52369;52.542;13.232;2024-03-25T14:27:23;4.78;;;1.75;;
65667;SDS011;52369;52.542;13.232;2024-03-25T14:29:50;4.32;;;1.85;;
65667;SDS011;52369;52.542;13.232;2024-03-25T14:32:19;3.58;;;1.65;;